createdAt,value
2023-01-19T00:00:24.146Z,92.38
2023-01-19T00:01:28.219Z,92.36
2023-01-19T00:02:32.424Z,92.33
2023-01-19T00:03:36.554Z,92.32
2023-01-19T00:04:40.663Z,92.30
2023-01-19T00:05:44.679Z,92.29
2023-01-19T00:06:48.921Z,92.29
2023-01-19T00:07:53.214Z,92.29
2023-01-19T00:08:57.307Z,92.31
2023-01-19T00:10:01.398Z,92.30
2023-01-19T00:11:05.758Z,92.31
2023-01-19T00:12:09.799Z,92.30
2023-01-19T00:13:14.004Z,92.33
2023-01-19T00:14:18.187Z,92.32
2023-01-19T00:15:22.184Z,92.31
2023-01-19T00:16:26.397Z,92.34
2023-01-19T00:17:30.490Z,92.26
2023-01-19T00:18:34.635Z,92.33
2023-01-19T00:19:38.732Z,92.33
2023-01-19T00:20:42.955Z,92.34
2023-01-19T00:21:47.172Z,92.34
2023-01-19T00:22:51.304Z,92.34
2023-01-19T00:23:55.239Z,92.33
2023-01-19T00:24:59.619Z,92.33
2023-01-19T00:26:03.628Z,92.30
2023-01-19T00:27:07.884Z,92.30
2023-01-19T00:28:11.979Z,92.28
2023-01-19T00:29:16.141Z,92.27
2023-01-19T00:30:20.140Z,92.29
2023-01-19T00:31:24.505Z,92.27
2023-01-19T00:32:28.584Z,92.27
2023-01-19T00:33:32.771Z,92.23
2023-01-19T00:34:36.801Z,92.22
2023-01-19T00:35:41.040Z,92.19
2023-01-19T00:36:46.032Z,92.17
2023-01-19T00:37:49.842Z,92.15
2023-01-19T00:38:54.001Z,92.11
2023-01-19T00:39:58.107Z,92.04
2023-01-19T00:41:02.216Z,91.97
2023-01-19T00:42:06.318Z,91.99
2023-01-19T00:43:13.407Z,91.96
2023-01-19T00:44:16.683Z,91.94
2023-01-19T00:45:20.840Z,91.89
2023-01-19T00:46:25.020Z,91.89
2023-01-19T00:47:29.151Z,91.87
2023-01-19T00:48:33.243Z,91.87
2023-01-19T00:49:37.423Z,91.86
2023-01-19T00:50:41.605Z,91.85
2023-01-19T00:51:45.989Z,91.84
2023-01-19T00:52:50.020Z,91.83
2023-01-19T00:53:54.158Z,91.81
2023-01-19T00:54:58.291Z,91.80
2023-01-19T00:56:02.504Z,91.78
2023-01-19T00:57:07.536Z,91.79
2023-01-19T00:58:11.285Z,91.78
2023-01-19T00:59:15.403Z,91.78
2023-01-19T01:00:19.585Z,91.83
2023-01-19T01:01:23.882Z,91.76
2023-01-19T01:02:27.910Z,91.76
2023-01-19T01:03:31.972Z,91.75
2023-01-19T01:04:36.090Z,91.74
2023-01-19T01:05:40.224Z,91.74
2023-01-19T01:06:44.506Z,91.72
2023-01-19T01:07:48.646Z,91.72
2023-01-19T01:08:52.698Z,91.72
2023-01-19T01:09:56.875Z,91.71
2023-01-19T01:11:00.943Z,91.70
2023-01-19T01:12:06.028Z,91.67
2023-01-19T01:13:19.903Z,91.67
2023-01-19T01:14:15.631Z,91.67
2023-01-19T01:15:19.707Z,91.67
2023-01-19T01:16:24.773Z,91.66
2023-01-19T01:17:28.593Z,91.62
2023-01-19T01:18:32.816Z,91.62
2023-01-19T01:19:36.927Z,91.64
2023-01-19T01:20:41.021Z,91.64
2023-01-19T01:21:45.203Z,91.64
2023-01-19T01:22:49.304Z,91.65
2023-01-19T01:23:53.470Z,91.65
2023-01-19T01:24:57.659Z,91.64
2023-01-19T01:26:01.725Z,91.65
2023-01-19T01:27:06.154Z,91.64
2023-01-19T01:28:10.160Z,91.65
2023-01-19T01:29:14.236Z,91.65
2023-01-19T01:30:21.466Z,91.68
2023-01-19T01:31:24.749Z,91.70
2023-01-19T01:32:28.744Z,91.69
2023-01-19T01:33:39.913Z,91.71
2023-01-19T01:34:37.137Z,91.73
2023-01-19T01:35:41.227Z,91.74
2023-01-19T01:38:12.323Z,91.79
2023-01-19T01:39:16.533Z,91.84
2023-01-19T01:40:20.529Z,91.88
2023-01-19T01:41:25.537Z,91.93
2023-01-19T01:42:29.003Z,91.95
2023-01-19T01:43:33.045Z,91.94
2023-01-19T01:44:37.212Z,91.97
2023-01-19T01:45:41.284Z,91.98
2023-01-19T01:46:45.481Z,92.00
2023-01-19T01:47:49.599Z,92.00
2023-01-19T01:48:53.603Z,92.05
2023-01-19T01:49:57.827Z,92.09
2023-01-19T01:51:01.939Z,92.11
2023-01-19T01:52:06.113Z,92.24
2023-01-19T01:53:10.599Z,92.16
2023-01-19T01:54:14.461Z,92.19
2023-01-19T01:55:18.616Z,92.20
2023-01-19T01:56:23.027Z,92.21
2023-01-19T01:57:27.093Z,92.23
2023-01-19T01:58:31.290Z,92.25
2023-01-19T01:59:35.381Z,92.24
2023-01-19T02:00:39.412Z,92.22
2023-01-19T02:01:43.859Z,92.30
2023-01-19T02:02:47.809Z,92.23
2023-01-19T02:03:52.815Z,92.24
2023-01-19T02:04:56.504Z,92.24
2023-01-19T02:06:00.773Z,92.25
2023-01-19T02:07:05.809Z,92.26
2023-01-19T02:08:09.715Z,92.28
2023-01-19T02:09:13.709Z,92.30
2023-01-19T02:10:18.003Z,92.31
2023-01-19T02:11:22.080Z,92.30
2023-01-19T02:12:26.178Z,92.29
2023-01-19T02:13:30.241Z,92.29
2023-01-19T02:14:34.454Z,92.30
2023-01-19T02:15:38.638Z,92.27
2023-01-19T02:16:43.030Z,92.31
2023-01-19T02:17:47.024Z,92.25
2023-01-19T02:18:51.182Z,92.23
2023-01-19T02:19:55.337Z,92.25
2023-01-19T02:20:59.615Z,92.34
2023-01-19T02:22:03.670Z,92.21
2023-01-19T02:23:08.028Z,92.19
2023-01-19T02:24:12.171Z,92.16
2023-01-19T02:25:16.143Z,92.15
2023-01-19T02:26:20.446Z,92.17
2023-01-19T02:27:24.537Z,92.17
2023-01-19T02:28:28.885Z,92.21
2023-01-19T02:29:33.045Z,92.20
2023-01-19T02:30:37.132Z,92.16
2023-01-19T02:31:55.216Z,92.13
2023-01-19T02:32:58.663Z,92.14
2023-01-19T02:34:02.972Z,92.15
2023-01-19T02:35:06.624Z,92.18
2023-01-19T02:36:10.682Z,92.17
2023-01-19T02:37:14.801Z,92.14
2023-01-19T02:38:18.926Z,92.19
2023-01-19T02:39:23.183Z,92.19
2023-01-19T02:40:27.192Z,92.20
2023-01-19T02:41:31.478Z,92.20
2023-01-19T02:42:35.819Z,92.19
2023-01-19T02:43:39.806Z,92.20
2023-01-19T02:44:44.067Z,92.19
2023-01-19T02:45:48.220Z,92.17
2023-01-19T02:46:52.269Z,92.17
2023-01-19T02:47:56.462Z,92.17
2023-01-19T02:49:00.627Z,92.18
2023-01-19T02:50:18.969Z,92.11
2023-01-19T02:51:21.886Z,92.08
2023-01-19T02:52:25.922Z,92.11
2023-01-19T02:53:30.033Z,92.12
2023-01-19T02:54:34.223Z,92.11
2023-01-19T02:55:38.421Z,92.07
2023-01-19T02:56:42.580Z,92.07
2023-01-19T02:57:46.716Z,92.06
2023-01-19T02:58:50.828Z,92.02
2023-01-19T02:59:54.964Z,92.07
2023-01-19T03:00:59.352Z,91.99
2023-01-19T03:02:03.298Z,91.98
2023-01-19T03:03:07.537Z,91.99
2023-01-19T03:04:11.485Z,91.97
2023-01-19T03:05:15.671Z,91.93
2023-01-19T03:06:33.871Z,91.92
2023-01-19T03:07:36.717Z,91.96
2023-01-19T03:08:40.777Z,91.97
2023-01-19T03:09:44.874Z,91.91
2023-01-19T03:10:49.011Z,92.02
2023-01-19T03:11:53.305Z,92.04
2023-01-19T03:12:57.502Z,92.06
2023-01-19T03:14:02.018Z,92.06
2023-01-19T03:15:05.665Z,92.05
2023-01-19T03:16:10.060Z,92.04
2023-01-19T03:17:13.971Z,92.05
2023-01-19T03:18:17.996Z,92.01
2023-01-19T03:19:22.336Z,92.02
2023-01-19T03:20:26.375Z,92.01
2023-01-19T03:21:30.477Z,92.03
2023-01-19T03:22:34.629Z,92.03
2023-01-19T03:23:38.750Z,91.97
2023-01-19T03:24:42.926Z,91.99
2023-01-19T03:25:47.101Z,91.99
2023-01-19T03:26:51.101Z,91.97
2023-01-19T03:27:55.507Z,91.98
2023-01-19T03:28:59.515Z,91.97
2023-01-19T03:30:03.666Z,91.95
2023-01-19T03:31:07.949Z,91.95
2023-01-19T03:32:12.038Z,91.95
2023-01-19T03:33:16.188Z,91.95
2023-01-19T03:34:20.505Z,91.92
2023-01-19T03:35:24.552Z,91.90
2023-01-19T03:36:28.845Z,91.88
2023-01-19T03:37:32.881Z,91.86
2023-01-19T03:38:36.947Z,91.86
2023-01-19T03:39:41.087Z,91.86
2023-01-19T03:40:45.281Z,91.85
2023-01-19T03:43:15.977Z,91.81
2023-01-19T03:44:20.245Z,91.83
2023-01-19T03:45:24.220Z,91.86
2023-01-19T03:46:28.440Z,91.89
2023-01-19T03:47:32.654Z,91.92
2023-01-19T03:48:36.739Z,91.94
2023-01-19T03:49:40.886Z,91.95
2023-01-19T03:50:45.933Z,91.96
2023-01-19T03:51:49.806Z,91.94
2023-01-19T03:52:56.934Z,91.93
2023-01-19T03:54:00.163Z,91.93
2023-01-19T03:55:04.372Z,91.92
2023-01-19T03:56:08.585Z,91.91
2023-01-19T03:57:12.699Z,91.90
2023-01-19T03:58:16.811Z,91.89
2023-01-19T03:59:20.951Z,91.89
2023-01-19T04:00:25.127Z,91.86
2023-01-19T04:01:29.597Z,91.86
2023-01-19T04:02:33.535Z,91.85
2023-01-19T04:03:37.620Z,91.86
2023-01-19T04:04:41.763Z,91.85
2023-01-19T04:05:45.972Z,91.87
2023-01-19T04:06:50.060Z,91.89
2023-01-19T04:07:54.188Z,91.90
2023-01-19T04:08:58.437Z,91.90
2023-01-19T04:10:02.538Z,91.92
2023-01-19T04:11:06.632Z,91.92
2023-01-19T04:12:10.832Z,91.92
2023-01-19T04:13:14.875Z,91.93
2023-01-19T04:14:18.964Z,91.93
2023-01-19T04:15:23.267Z,91.91
2023-01-19T04:16:27.389Z,91.89
2023-01-19T04:17:31.555Z,91.90
2023-01-19T04:18:35.722Z,91.85
2023-01-19T04:19:39.855Z,91.83
2023-01-19T04:20:43.966Z,91.79
2023-01-19T04:21:48.095Z,91.80
2023-01-19T04:22:52.189Z,91.79
2023-01-19T04:23:56.442Z,91.83
2023-01-19T04:25:00.592Z,91.81
2023-01-19T04:26:04.679Z,91.86
2023-01-19T04:27:08.826Z,91.87
2023-01-19T04:28:13.029Z,91.81
2023-01-19T04:29:17.139Z,91.88
2023-01-19T04:30:21.571Z,91.90
2023-01-19T04:31:25.648Z,91.93
2023-01-19T04:32:29.714Z,91.97
2023-01-19T04:33:33.852Z,91.99
2023-01-19T04:34:37.991Z,92.01
2023-01-19T04:35:42.188Z,92.05
2023-01-19T04:36:46.319Z,92.07
2023-01-19T04:37:50.463Z,92.08
2023-01-19T04:38:54.602Z,92.11
2023-01-19T04:39:58.711Z,92.09
2023-01-19T04:41:02.886Z,92.13
2023-01-19T04:42:06.960Z,92.11
2023-01-19T04:43:11.080Z,92.08
2023-01-19T04:44:15.325Z,92.07
2023-01-19T04:45:19.332Z,92.07
2023-01-19T04:46:23.695Z,92.06
2023-01-19T04:47:27.771Z,92.00
2023-01-19T04:48:31.871Z,91.99
2023-01-19T04:49:36.043Z,91.97
2023-01-19T04:50:40.186Z,91.97
2023-01-19T04:51:44.337Z,91.97
2023-01-19T04:52:48.431Z,91.94
2023-01-19T04:53:52.589Z,91.93
2023-01-19T04:54:56.708Z,91.95
2023-01-19T04:56:00.830Z,91.95
2023-01-19T04:57:05.017Z,91.96
2023-01-19T04:58:09.046Z,91.87
2023-01-19T04:59:13.247Z,91.92
2023-01-19T05:00:17.373Z,91.90
2023-01-19T05:01:21.761Z,91.87
2023-01-19T05:02:25.696Z,91.85
2023-01-19T05:03:30.054Z,91.84
2023-01-19T05:04:34.000Z,91.84
2023-01-19T05:05:38.231Z,91.84
2023-01-19T05:06:42.253Z,91.74
2023-01-19T05:07:46.560Z,91.75
2023-01-19T05:08:50.631Z,91.68
2023-01-19T05:09:54.723Z,91.66
2023-01-19T05:10:58.927Z,91.64
2023-01-19T05:12:03.079Z,91.61
2023-01-19T05:13:21.347Z,91.51
2023-01-19T05:14:24.198Z,91.51
2023-01-19T05:15:28.493Z,91.52
2023-01-19T05:16:32.527Z,91.54
2023-01-19T05:17:36.581Z,91.55
2023-01-19T05:18:40.775Z,91.55
2023-01-19T05:19:44.910Z,91.55
2023-01-19T05:20:49.323Z,91.56
2023-01-19T05:21:53.269Z,91.54
2023-01-19T05:22:57.440Z,91.56
2023-01-19T05:24:01.584Z,91.56
2023-01-19T05:25:05.722Z,91.60
2023-01-19T05:26:12.820Z,91.60
2023-01-19T05:27:16.036Z,91.59
2023-01-19T05:28:20.138Z,91.56
2023-01-19T05:29:24.213Z,91.58
2023-01-19T05:30:28.359Z,91.60
2023-01-19T05:31:33.567Z,91.60
2023-01-19T05:32:37.191Z,91.56
2023-01-19T05:33:41.287Z,91.55
2023-01-19T05:34:45.418Z,91.49
2023-01-19T05:35:49.424Z,91.49
2023-01-19T05:36:53.673Z,91.49
2023-01-19T05:37:57.707Z,91.50
2023-01-19T05:39:01.910Z,91.51
2023-01-19T05:40:05.994Z,91.52
2023-01-19T05:41:10.117Z,91.53
2023-01-19T05:42:14.267Z,91.56
2023-01-19T05:43:18.271Z,91.57
2023-01-19T05:44:22.507Z,91.56
2023-01-19T05:45:26.660Z,91.56
2023-01-19T05:46:30.713Z,91.61
2023-01-19T05:47:34.922Z,91.59
2023-01-19T05:48:39.121Z,91.62
2023-01-19T05:49:43.279Z,91.71
2023-01-19T05:50:47.451Z,91.64
2023-01-19T05:51:51.593Z,91.65
2023-01-19T05:52:55.752Z,91.70
2023-01-19T05:53:59.787Z,91.68
2023-01-19T05:55:03.975Z,91.69
2023-01-19T05:56:08.161Z,91.70
2023-01-19T05:57:12.282Z,91.66
2023-01-19T05:58:30.539Z,91.64
2023-01-19T05:59:33.411Z,91.65
2023-01-19T06:00:37.608Z,91.66
2023-01-19T06:01:41.758Z,91.66
2023-01-19T06:02:45.964Z,91.69
2023-01-19T06:03:50.050Z,91.71
2023-01-19T06:04:54.066Z,91.74
2023-01-19T06:05:58.388Z,91.77
2023-01-19T06:07:02.584Z,91.77
2023-01-19T06:08:06.659Z,91.78
2023-01-19T06:09:10.809Z,91.67
2023-01-19T06:10:14.937Z,91.74
2023-01-19T06:11:19.032Z,91.76
2023-01-19T06:12:23.163Z,91.76
2023-01-19T06:13:30.381Z,91.74
2023-01-19T06:14:33.504Z,91.75
2023-01-19T06:15:37.741Z,91.76
2023-01-19T06:16:41.902Z,91.75
2023-01-19T06:17:45.956Z,91.75
2023-01-19T06:18:50.080Z,91.75
2023-01-19T06:19:54.264Z,91.75
2023-01-19T06:20:58.428Z,91.70
2023-01-19T06:22:02.441Z,91.70
2023-01-19T06:23:06.681Z,91.72
2023-01-19T06:24:12.118Z,91.73
2023-01-19T06:25:14.986Z,91.74
2023-01-19T06:26:19.141Z,91.74
2023-01-19T06:27:23.410Z,91.68
2023-01-19T06:28:33.511Z,91.73
2023-01-19T06:29:36.117Z,91.75
2023-01-19T06:30:40.175Z,91.77
2023-01-19T06:31:44.376Z,91.78
2023-01-19T06:32:48.536Z,91.80
2023-01-19T06:33:52.691Z,91.79
2023-01-19T06:34:56.940Z,91.76
2023-01-19T06:36:01.074Z,91.73
2023-01-19T06:37:05.202Z,91.74
2023-01-19T06:38:09.313Z,91.76
2023-01-19T06:39:13.798Z,91.77
2023-01-19T06:40:17.811Z,91.72
2023-01-19T06:41:22.041Z,91.70
2023-01-19T06:42:26.205Z,91.70
2023-01-19T06:43:30.213Z,91.70
2023-01-19T06:44:34.448Z,91.71
2023-01-19T06:45:38.586Z,91.71
2023-01-19T06:46:42.611Z,91.68
2023-01-19T06:47:46.857Z,91.62
2023-01-19T06:48:51.061Z,91.62
2023-01-19T06:49:55.135Z,91.59
2023-01-19T06:50:59.960Z,91.54
2023-01-19T06:52:03.364Z,91.53
2023-01-19T06:53:07.635Z,91.51
2023-01-19T06:54:11.718Z,91.50
2023-01-19T06:55:21.890Z,91.43
2023-01-19T06:56:24.543Z,91.40
2023-01-19T06:57:28.687Z,91.37
2023-01-19T06:58:32.830Z,91.37
2023-01-19T06:59:36.892Z,91.38
2023-01-19T07:00:55.241Z,91.41
2023-01-19T07:01:58.182Z,91.40
2023-01-19T07:03:02.851Z,91.42
2023-01-19T07:04:06.210Z,91.41
2023-01-19T07:05:10.418Z,91.43
2023-01-19T07:06:14.599Z,91.40
2023-01-19T07:07:18.684Z,91.37
2023-01-19T07:08:22.829Z,91.36
2023-01-19T07:09:26.880Z,91.38
2023-01-19T07:11:25.977Z,91.37
2023-01-19T07:11:35.229Z,91.34
2023-01-19T07:12:39.428Z,91.32
2023-01-19T07:13:43.455Z,91.31
2023-01-19T07:14:47.656Z,91.35
2023-01-19T07:15:51.916Z,91.35
2023-01-19T07:16:56.178Z,91.36
2023-01-19T07:18:00.175Z,91.36
2023-01-19T07:19:04.185Z,91.38
2023-01-19T07:20:08.450Z,91.34
2023-01-19T07:21:12.649Z,91.38
2023-01-19T07:22:16.652Z,91.40
2023-01-19T07:23:20.834Z,91.42
2023-01-19T07:24:25.007Z,91.43
2023-01-19T07:25:29.178Z,91.45
2023-01-19T07:26:33.412Z,91.46
2023-01-19T07:27:37.501Z,91.46
2023-01-19T07:28:41.729Z,91.48
2023-01-19T07:29:45.902Z,91.44
2023-01-19T07:30:50.033Z,91.44
2023-01-19T07:31:54.088Z,91.46
2023-01-19T07:32:58.935Z,91.47
2023-01-19T07:34:02.439Z,91.48
2023-01-19T07:35:06.788Z,91.46
2023-01-19T07:36:10.699Z,91.49
2023-01-19T07:37:14.964Z,91.48
2023-01-19T07:38:19.119Z,91.48
2023-01-19T07:39:23.365Z,91.48
2023-01-19T07:40:27.623Z,91.49
2023-01-19T07:41:31.625Z,91.60
2023-01-19T07:42:35.741Z,91.49
2023-01-19T07:43:39.801Z,91.48
2023-01-19T07:44:43.988Z,91.48
2023-01-19T07:45:48.392Z,91.50
2023-01-19T07:47:06.489Z,91.51
2023-01-19T07:48:09.441Z,91.53
2023-01-19T07:49:13.583Z,91.56
2023-01-19T07:50:17.707Z,91.59
2023-01-19T07:51:21.840Z,91.60
2023-01-19T07:52:25.929Z,91.59
2023-01-19T07:53:30.167Z,91.59
2023-01-19T07:54:34.181Z,91.60
2023-01-19T07:55:39.417Z,91.62
2023-01-19T07:56:42.968Z,91.64
2023-01-19T07:57:47.211Z,91.68
2023-01-19T07:58:51.352Z,91.67
2023-01-19T07:59:55.510Z,91.67
2023-01-19T08:00:59.811Z,91.67
2023-01-19T08:02:04.103Z,91.67
2023-01-19T08:03:08.005Z,91.68
2023-01-19T08:04:12.239Z,91.69
2023-01-19T08:05:16.307Z,91.70
2023-01-19T08:06:20.588Z,91.73
2023-01-19T08:07:24.644Z,91.67
2023-01-19T08:08:29.714Z,91.75
2023-01-19T08:09:33.462Z,91.76
2023-01-19T08:10:37.644Z,91.77
2023-01-19T08:11:41.834Z,91.78
2023-01-19T08:12:45.921Z,91.81
2023-01-19T08:13:49.986Z,91.83
2023-01-19T08:14:54.313Z,91.86
2023-01-19T08:15:58.427Z,91.92
2023-01-19T08:17:02.555Z,91.89
2023-01-19T08:18:06.670Z,91.90
2023-01-19T08:19:10.893Z,91.93
2023-01-19T08:20:15.070Z,91.94
2023-01-19T08:21:19.089Z,91.94
2023-01-19T08:22:23.426Z,91.98
2023-01-19T08:23:27.596Z,92.02
2023-01-19T08:24:31.676Z,92.00
2023-01-19T08:25:35.971Z,91.94
2023-01-19T08:26:40.139Z,91.97
2023-01-19T08:27:44.190Z,91.96
2023-01-19T08:28:48.385Z,91.90
2023-01-19T08:29:52.417Z,91.86
2023-01-19T08:30:56.809Z,91.81
2023-01-19T08:32:00.892Z,91.76
2023-01-19T08:33:05.051Z,91.72
2023-01-19T08:34:09.128Z,91.69
2023-01-19T08:35:14.194Z,91.66
2023-01-19T08:36:17.868Z,91.66
2023-01-19T08:37:22.059Z,91.65
2023-01-19T08:38:26.352Z,91.60
2023-01-19T08:39:30.446Z,91.65
2023-01-19T08:40:34.503Z,91.65
2023-01-19T08:41:38.808Z,91.65
2023-01-19T08:42:42.971Z,91.61
2023-01-19T08:43:47.027Z,91.58
2023-01-19T08:44:58.183Z,91.58
2023-01-19T08:45:55.276Z,91.57
2023-01-19T08:46:59.530Z,91.54
2023-01-19T08:48:03.703Z,91.51
2023-01-19T08:49:07.760Z,91.48
2023-01-19T08:50:11.901Z,91.44
2023-01-19T08:51:16.083Z,91.45
2023-01-19T08:52:20.290Z,91.41
2023-01-19T08:53:24.369Z,91.42
2023-01-19T08:54:28.543Z,91.37
2023-01-19T08:55:32.676Z,91.43
2023-01-19T08:56:36.943Z,91.44
2023-01-19T08:57:41.105Z,91.43
2023-01-19T08:58:46.706Z,91.43
2023-01-19T08:59:49.609Z,91.45
2023-01-19T09:00:53.720Z,91.44
2023-01-19T09:01:57.959Z,91.32
2023-01-19T09:03:02.401Z,91.30
2023-01-19T09:04:05.936Z,91.28
2023-01-19T09:05:10.163Z,91.23
2023-01-19T09:06:14.239Z,91.24
2023-01-19T09:07:18.547Z,91.21
2023-01-19T09:08:22.685Z,91.15
2023-01-19T09:09:26.762Z,91.13
2023-01-19T09:10:30.972Z,91.11
2023-01-19T09:11:35.176Z,91.15
2023-01-19T09:12:39.260Z,91.16
2023-01-19T09:13:43.515Z,91.15
2023-01-19T09:14:47.661Z,91.15
2023-01-19T09:15:51.853Z,91.09
2023-01-19T09:16:55.929Z,91.02
2023-01-19T09:18:00.462Z,90.98
2023-01-19T09:19:04.149Z,90.97
2023-01-19T09:20:08.361Z,90.96
2023-01-19T09:21:12.599Z,91.00
2023-01-19T09:22:16.729Z,90.99
2023-01-19T09:23:20.900Z,90.93
2023-01-19T09:24:25.105Z,90.88
2023-01-19T09:25:29.215Z,90.86
2023-01-19T09:26:33.408Z,90.87
2023-01-19T09:27:37.588Z,90.85
2023-01-19T09:28:41.824Z,90.79
2023-01-19T09:29:45.981Z,90.74
2023-01-19T09:30:50.284Z,90.72
2023-01-19T09:31:54.356Z,90.70
2023-01-19T09:32:59.424Z,90.68
2023-01-19T09:34:02.688Z,90.65
2023-01-19T09:35:06.918Z,90.61
2023-01-19T09:36:11.006Z,90.58
2023-01-19T09:37:15.240Z,90.60
2023-01-19T09:38:19.373Z,90.58
2023-01-19T09:39:23.504Z,90.58
2023-01-19T09:40:27.737Z,90.55
2023-01-19T09:41:31.861Z,90.52
2023-01-19T09:42:35.953Z,90.49
2023-01-19T09:43:40.130Z,90.47
2023-01-19T09:44:44.317Z,90.51
2023-01-19T09:45:48.493Z,90.58
2023-01-19T09:46:52.568Z,90.58
2023-01-19T09:47:56.859Z,90.70
2023-01-19T09:49:00.887Z,90.59
2023-01-19T09:50:05.138Z,90.60
2023-01-19T09:51:09.228Z,90.63
2023-01-19T09:52:13.319Z,90.63
2023-01-19T09:53:17.476Z,90.64
2023-01-19T09:54:22.657Z,90.69
2023-01-19T09:55:40.523Z,90.72
2023-01-19T09:56:43.332Z,90.79
2023-01-19T09:57:47.459Z,90.81
2023-01-19T09:58:51.675Z,90.78
2023-01-19T09:59:55.839Z,90.80
2023-01-19T10:01:00.087Z,90.80
2023-01-19T10:02:07.233Z,90.70
2023-01-19T10:03:10.704Z,90.71
2023-01-19T10:04:14.536Z,90.70
2023-01-19T10:05:21.723Z,90.74
2023-01-19T10:06:25.159Z,90.73
2023-01-19T10:07:29.293Z,90.78
2023-01-19T10:08:33.271Z,90.77
2023-01-19T10:09:37.507Z,90.78
2023-01-19T10:10:41.785Z,90.77
2023-01-19T10:11:52.666Z,90.77
2023-01-19T10:12:51.121Z,90.75
2023-01-19T10:13:54.628Z,90.77
2023-01-19T10:14:58.880Z,90.73
2023-01-19T10:16:03.105Z,90.68
2023-01-19T10:17:07.211Z,90.62
2023-01-19T10:18:11.390Z,90.66
2023-01-19T10:19:15.493Z,90.70
2023-01-19T10:20:19.760Z,90.73
2023-01-19T10:21:23.959Z,90.76
2023-01-19T10:22:29.028Z,90.80
2023-01-19T10:23:32.781Z,90.86
2023-01-19T10:24:36.966Z,90.91
2023-01-19T10:25:41.226Z,90.94
2023-01-19T10:26:45.382Z,90.95
2023-01-19T10:27:49.539Z,90.95
2023-01-19T10:28:53.680Z,90.91
2023-01-19T10:29:57.906Z,90.87
2023-01-19T10:31:02.354Z,90.83
2023-01-19T10:32:06.393Z,90.68
2023-01-19T10:33:10.375Z,90.54
2023-01-19T10:34:15.341Z,90.43
2023-01-19T10:35:18.783Z,90.33
2023-01-19T10:36:22.950Z,90.24
2023-01-19T10:37:27.069Z,90.18
2023-01-19T10:38:45.411Z,90.16
2023-01-19T10:39:48.385Z,90.03
2023-01-19T10:40:52.328Z,90.00
2023-01-19T10:41:56.526Z,89.95
2023-01-19T10:43:01.159Z,89.92
2023-01-19T10:44:04.834Z,89.81
2023-01-19T10:45:09.044Z,89.67
2023-01-19T10:46:13.310Z,89.57
2023-01-19T10:47:17.239Z,89.52
2023-01-19T10:48:21.501Z,89.39
2023-01-19T10:49:25.705Z,89.30
2023-01-19T10:50:29.874Z,89.25
2023-01-19T10:51:40.107Z,89.26
2023-01-19T10:52:42.950Z,89.22
2023-01-19T10:53:46.993Z,89.20
2023-01-19T10:54:51.250Z,89.12
2023-01-19T10:55:55.336Z,89.06
2023-01-19T10:56:59.635Z,88.99
2023-01-19T10:58:03.694Z,88.98
2023-01-19T10:59:07.815Z,88.89
2023-01-19T11:00:12.027Z,88.78
2023-01-19T11:01:16.186Z,88.71
2023-01-19T11:02:20.513Z,88.71
2023-01-19T11:03:24.511Z,88.71
2023-01-19T11:04:28.465Z,88.77
2023-01-19T11:05:32.892Z,88.73
2023-01-19T11:06:36.896Z,88.76
2023-01-19T11:07:41.057Z,88.78
2023-01-19T11:08:45.419Z,88.82
2023-01-19T11:09:49.714Z,88.84
2023-01-19T11:10:53.736Z,88.88
2023-01-19T11:11:57.935Z,88.90
2023-01-19T11:13:02.725Z,88.93
2023-01-19T11:14:06.257Z,88.97
2023-01-19T11:15:10.543Z,89.02
2023-01-19T11:16:14.752Z,89.01
2023-01-19T11:17:18.894Z,89.00
2023-01-19T11:18:23.176Z,89.00
2023-01-19T11:19:27.316Z,89.02
2023-01-19T11:20:31.515Z,89.06
2023-01-19T11:21:35.747Z,89.08
2023-01-19T11:22:39.981Z,89.13
2023-01-19T11:23:44.034Z,89.13
2023-01-19T11:24:48.274Z,89.13
2023-01-19T11:25:52.525Z,89.24
2023-01-19T11:26:56.539Z,89.13
2023-01-19T11:28:06.959Z,89.11
2023-01-19T11:29:09.721Z,89.11
2023-01-19T11:30:13.881Z,89.12
2023-01-19T11:31:18.232Z,89.15
2023-01-19T11:32:22.311Z,89.16
2023-01-19T11:33:26.460Z,89.15
2023-01-19T11:34:30.624Z,89.15
2023-01-19T11:35:34.787Z,89.21
2023-01-19T11:36:39.015Z,89.24
2023-01-19T11:37:43.192Z,89.33
2023-01-19T11:38:47.260Z,89.42
2023-01-19T11:39:51.664Z,89.49
2023-01-19T11:40:55.893Z,89.42
2023-01-19T11:42:00.021Z,89.33
2023-01-19T11:43:10.231Z,89.30
2023-01-19T11:44:12.971Z,89.27
2023-01-19T11:45:17.066Z,89.23
2023-01-19T11:46:21.253Z,89.20
2023-01-19T11:47:25.380Z,89.20
2023-01-19T11:48:29.676Z,89.15
2023-01-19T11:49:33.865Z,89.13
2023-01-19T11:50:38.003Z,88.98
2023-01-19T11:51:42.316Z,88.90
2023-01-19T11:52:46.492Z,88.88
2023-01-19T11:53:50.678Z,88.91
2023-01-19T11:54:54.825Z,88.84
2023-01-19T11:55:59.092Z,88.69
2023-01-19T11:57:03.319Z,88.60
2023-01-19T11:58:07.486Z,88.53
2023-01-19T11:59:11.676Z,88.45
2023-01-19T12:00:15.928Z,88.38
2023-01-19T12:01:20.240Z,88.34
2023-01-19T12:02:24.355Z,88.28
2023-01-19T12:03:28.533Z,88.17
2023-01-19T12:04:32.804Z,88.13
2023-01-19T12:05:36.914Z,88.10
2023-01-19T12:06:41.081Z,88.17
2023-01-19T12:07:45.314Z,88.13
2023-01-19T12:08:49.484Z,88.08
2023-01-19T12:09:53.686Z,88.03
2023-01-19T12:10:57.892Z,88.07
2023-01-19T12:12:02.056Z,88.03
2023-01-19T12:13:06.344Z,88.00
2023-01-19T12:14:10.536Z,88.02
2023-01-19T12:15:14.770Z,87.96
2023-01-19T12:16:19.211Z,87.95
2023-01-19T12:17:23.315Z,87.89
2023-01-19T12:18:27.582Z,87.88
2023-01-19T12:19:31.751Z,87.81
2023-01-19T12:20:35.908Z,87.79
2023-01-19T12:21:43.223Z,87.84
2023-01-19T12:22:46.631Z,87.89
2023-01-19T12:23:50.654Z,87.93
2023-01-19T12:24:54.932Z,88.03
2023-01-19T12:25:59.064Z,88.02
2023-01-19T12:27:03.242Z,88.00
2023-01-19T12:28:07.439Z,87.92
2023-01-19T12:29:11.624Z,87.96
2023-01-19T12:30:15.795Z,87.92
2023-01-19T12:31:20.077Z,87.96
2023-01-19T12:32:24.112Z,87.93
2023-01-19T12:33:28.272Z,87.90
2023-01-19T12:34:32.560Z,87.85
2023-01-19T12:35:36.695Z,87.84
2023-01-19T12:36:40.878Z,87.87
2023-01-19T12:37:45.163Z,87.90
2023-01-19T12:38:49.310Z,87.91
2023-01-19T12:39:53.514Z,87.82
2023-01-19T12:40:57.647Z,87.79
2023-01-19T12:42:01.832Z,87.77
2023-01-19T12:43:06.147Z,87.83
2023-01-19T12:44:10.256Z,87.84
2023-01-19T12:45:14.543Z,87.84
2023-01-19T12:46:18.735Z,87.85
2023-01-19T12:47:22.887Z,87.87
2023-01-19T12:48:27.107Z,87.88
2023-01-19T12:49:31.309Z,87.90
2023-01-19T12:50:35.501Z,87.96
2023-01-19T12:51:39.663Z,88.02
2023-01-19T12:52:43.825Z,88.09
2023-01-19T12:53:48.141Z,88.13
2023-01-19T12:54:52.366Z,88.18
2023-01-19T12:55:56.499Z,88.17
2023-01-19T12:57:00.764Z,88.10
2023-01-19T12:58:04.915Z,88.06
2023-01-19T12:59:09.141Z,88.02
2023-01-19T13:00:20.929Z,87.98
2023-01-19T13:01:22.305Z,88.00
2023-01-19T13:02:26.296Z,88.00
2023-01-19T13:03:30.477Z,88.03
2023-01-19T13:04:35.646Z,88.06
2023-01-19T13:05:39.455Z,88.06
2023-01-19T13:06:43.632Z,88.05
2023-01-19T13:07:47.804Z,88.04
2023-01-19T13:08:51.974Z,88.03
2023-01-19T13:09:56.235Z,88.04
2023-01-19T13:11:00.719Z,87.91
2023-01-19T13:12:04.638Z,87.74
2023-01-19T13:13:08.738Z,87.71
2023-01-19T13:14:12.918Z,87.67
2023-01-19T13:15:16.982Z,87.68
2023-01-19T13:16:21.217Z,87.75
2023-01-19T13:17:25.508Z,87.79
2023-01-19T13:18:29.624Z,87.84
2023-01-19T13:19:33.864Z,87.85
2023-01-19T13:20:38.035Z,87.85
2023-01-19T13:21:44.406Z,87.83
2023-01-19T13:22:46.413Z,87.79
2023-01-19T13:23:50.597Z,87.82
2023-01-19T13:24:54.887Z,87.85
2023-01-19T13:25:58.970Z,87.85
2023-01-19T13:27:03.257Z,87.87
2023-01-19T13:28:07.362Z,87.94
2023-01-19T13:29:11.652Z,87.96
2023-01-19T13:30:15.770Z,88.01
2023-01-19T13:31:19.979Z,88.13
2023-01-19T13:32:24.179Z,88.11
2023-01-19T13:33:28.551Z,88.16
2023-01-19T13:34:32.653Z,88.17
2023-01-19T13:35:36.815Z,88.19
2023-01-19T13:36:41.025Z,88.17
2023-01-19T13:37:45.204Z,88.12
2023-01-19T13:38:49.227Z,88.19
2023-01-19T13:39:53.516Z,88.24
2023-01-19T13:40:57.714Z,88.23
2023-01-19T13:42:01.975Z,88.24
2023-01-19T13:43:06.114Z,88.27
2023-01-19T13:44:10.274Z,88.25
2023-01-19T13:45:14.567Z,88.28
2023-01-19T13:46:18.679Z,88.34
2023-01-19T13:47:22.881Z,88.28
2023-01-19T13:48:27.186Z,88.32
2023-01-19T13:49:31.370Z,88.35
2023-01-19T13:50:35.485Z,88.36
2023-01-19T13:51:39.736Z,88.34